首页
METAR-TAF:

METAR-TAF

机场 :

Lincolnton-Lincoln County Regional Airport

Lincolnton, 北卡罗来纳州, 美国

纬度: 35-28-59N, 经度: 081-09-41W, 海拔: 267米

当前天气观测

该预报发布于1小时和3分钟前的05:05 UTC
风速3节,风向西转西南
温度 20°C
湿度 94%
气压 1017 hPa
能見度: 16.1公里
天空无云

METAR: KIPJ 270505Z AUTO 24003KT 10SM CLR 20/19 A3003 RMK AO2 T02000187

时间: 02:08 (06:08 UTC)


TAF: 丢失

超过4000个机场的气象观测和天气预报(METAR&TAF报告)。

可查询的气象台以黄色和红色小点在地图上表示。

将鼠标移到小点上方,可查看气象台名称。

然后点击查看天气观测和预报。

如需切换地图:点击带黑十字的绿色按钮放大地图;点击带横线的绿色按钮缩小地图;或者点击绿色箭头查看邻近地区的地图。


METAR-TAF: